Guayaramerin, Bolivia
Current Conditions -  °F | °C
As of 10:00 AM on Monday 24 Nov 2014 (Local Time) from SLRI Reporting Station
Rain Showers Rain Showers  
Wind Chill: 79°   Ceiling: 600
Heat Index: 82°   Visibility: 5mi
Dew Point: 73°   Wind: 5mph
Humidity: 83%   Direction: 350°N
Pressure: 29.91"   Gusts: NA
Location:  10.83°S, 65.41°W
Report Text: SLRI 241400Z 35004KT 8000 VCSH BKN006 BKN080 26/23 Q1013
Loading
Personal Weather Stations






























Interactive Weather Map New forecast layout! Learn more

10-Day Weather Forecast

Advertisements
Track Severe Weather on mobile